createdAt,value
2023-01-04T00:00:12.128Z,27.10
2023-01-04T00:02:40.026Z,25.70
2023-01-04T00:05:08.457Z,25.37
2023-01-04T00:07:36.254Z,25.27
2023-01-04T00:10:04.646Z,25.63
2023-01-04T00:12:32.431Z,24.03
2023-01-04T00:15:00.183Z,24.43
2023-01-04T00:17:30.287Z,24.60
2023-01-04T00:19:58.062Z,24.30
2023-01-04T00:22:25.827Z,24.37
2023-01-04T00:24:53.634Z,26.37
2023-01-04T00:27:21.437Z,26.23
2023-01-04T00:29:49.214Z,26.77
2023-01-04T00:32:17.101Z,25.97
2023-01-04T00:34:46.241Z,24.73
2023-01-04T00:37:14.028Z,24.70
2023-01-04T00:39:41.790Z,25.63
2023-01-04T00:42:09.525Z,24.60
2023-01-04T00:44:37.245Z,23.23
2023-01-04T00:47:05.471Z,23.43
2023-01-04T00:49:33.461Z,22.63
2023-01-04T00:52:02.705Z,24.20
2023-01-04T00:54:30.487Z,22.93
2023-01-04T00:56:58.899Z,23.90
2023-01-04T00:59:26.801Z,21.93
2023-01-04T01:01:54.766Z,22.63
2023-01-04T01:04:24.681Z,22.40
2023-01-04T01:06:52.974Z,21.80
2023-01-04T01:09:23.853Z,22.00
2023-01-04T01:11:52.174Z,21.10
2023-01-04T01:14:22.296Z,21.33
2023-01-04T01:16:58.753Z,20.83
2023-01-04T01:19:28.153Z,22.00
2023-01-04T01:21:57.188Z,20.80
2023-01-04T01:24:29.810Z,21.27
2023-01-04T01:26:57.755Z,21.60
2023-01-04T01:29:25.614Z,22.07
2023-01-04T01:31:53.591Z,22.40
2023-01-04T01:34:22.015Z,21.57
2023-01-04T01:36:50.149Z,22.53
2023-01-04T01:39:17.963Z,20.73
2023-01-04T01:41:47.242Z,21.70
2023-01-04T01:44:52.268Z,21.63
2023-01-04T01:47:22.106Z,19.83
2023-01-04T01:49:51.461Z,19.77
2023-01-04T01:52:23.871Z,19.43
2023-01-04T01:54:56.487Z,19.50
2023-01-04T01:57:27.567Z,18.40
2023-01-04T01:59:57.303Z,19.17
2023-01-04T02:02:25.294Z,19.27
2023-01-04T02:04:53.496Z,18.93
2023-01-04T02:07:24.059Z,18.40
2023-01-04T02:09:52.149Z,17.33
2023-01-04T02:12:19.978Z,17.87
2023-01-04T02:14:51.226Z,16.17
2023-01-04T02:17:25.683Z,16.20
2023-01-04T02:20:11.429Z,15.73
2023-01-04T02:23:18.879Z,15.23
2023-01-04T02:26:28.514Z,15.23
2023-01-04T02:29:12.461Z,14.13
2023-01-04T02:31:43.477Z,14.67
2023-01-04T02:34:18.395Z,13.93
2023-01-04T02:36:50.139Z,13.57
2023-01-04T02:39:22.065Z,14.17
2023-01-04T02:41:53.563Z,13.37
2023-01-04T02:44:44.323Z,14.27
2023-01-04T02:47:16.955Z,13.53
2023-01-04T02:50:05.158Z,13.73
2023-01-04T02:52:33.752Z,12.57
2023-01-04T02:55:02.887Z,12.83
2023-01-04T02:57:42.488Z,11.10
2023-01-04T03:00:27.605Z,11.70
2023-01-04T03:03:27.625Z,12.30
2023-01-04T03:06:17.280Z,11.80
2023-01-04T03:08:52.988Z,11.53
2023-01-04T03:11:38.305Z,11.10
2023-01-04T03:14:31.668Z,11.37
2023-01-04T03:16:58.600Z,11.13
2023-01-04T03:19:42.640Z,11.83
2023-01-04T03:22:32.555Z,12.60
2023-01-04T03:25:18.923Z,11.83
2023-01-04T03:28:06.978Z,11.30
2023-01-04T03:30:53.910Z,11.57
2023-01-04T03:33:39.352Z,11.60
2023-01-04T03:36:15.831Z,10.93
2023-01-04T03:39:07.634Z,11.40
2023-01-04T03:41:56.742Z,11.10
2023-01-04T03:44:46.866Z,11.90
2023-01-04T03:47:35.259Z,11.97
2023-01-04T03:50:06.628Z,10.53
2023-01-04T03:52:36.457Z,11.00
2023-01-04T03:55:06.420Z,11.10
2023-01-04T03:57:34.940Z,11.00
2023-01-04T04:00:07.281Z,11.27
2023-01-04T04:02:36.915Z,11.20
2023-01-04T04:05:22.778Z,10.63
2023-01-04T04:08:09.486Z,10.67
2023-01-04T04:10:37.294Z,9.83
2023-01-04T04:13:05.042Z,10.37
2023-01-04T04:15:32.797Z,10.63
2023-01-04T04:18:00.580Z,8.97
2023-01-04T04:20:28.339Z,9.00
2023-01-04T04:22:57.496Z,9.20
2023-01-04T04:25:25.299Z,8.80
2023-01-04T04:27:53.058Z,8.77
2023-01-04T04:30:20.843Z,8.40
2023-01-04T04:32:48.590Z,7.97
2023-01-04T04:35:16.370Z,8.13
2023-01-04T04:37:44.181Z,8.67
2023-01-04T04:40:39.225Z,8.20
2023-01-04T04:43:08.700Z,7.90
2023-01-04T04:45:36.551Z,7.10
2023-01-04T04:48:04.623Z,7.07
2023-01-04T04:50:32.408Z,5.77
2023-01-04T04:53:00.220Z,7.43
2023-01-04T04:55:29.440Z,6.60
2023-01-04T04:57:57.197Z,6.53
2023-01-04T05:00:25.044Z,6.47
2023-01-04T05:02:52.921Z,6.40
2023-01-04T05:05:21.807Z,6.43
2023-01-04T05:07:49.539Z,5.97
2023-01-04T05:10:17.553Z,5.87
2023-01-04T05:13:00.729Z,5.20
2023-01-04T05:15:29.438Z,5.60
2023-01-04T05:17:57.239Z,5.83
2023-01-04T05:20:25.240Z,5.73
2023-01-04T05:22:53.228Z,5.57
2023-01-04T05:25:21.959Z,5.00
2023-01-04T05:27:51.150Z,5.20
2023-01-04T05:30:36.682Z,5.47
2023-01-04T05:33:05.736Z,5.27
2023-01-04T05:35:33.525Z,5.37
2023-01-04T05:38:01.335Z,4.93
2023-01-04T05:40:29.495Z,4.90
2023-01-04T05:42:58.804Z,5.00
2023-01-04T05:45:26.999Z,4.30
2023-01-04T05:47:55.263Z,4.43
2023-01-04T05:50:24.011Z,4.50
2023-01-04T05:52:51.978Z,3.90
2023-01-04T05:55:20.371Z,3.80
2023-01-04T05:57:48.164Z,4.10
2023-01-04T06:00:17.810Z,4.23
2023-01-04T06:02:45.657Z,3.87
2023-01-04T06:05:14.014Z,3.70
2023-01-04T06:07:42.032Z,3.67
2023-01-04T06:10:11.373Z,4.00
2023-01-04T06:12:39.239Z,3.90
2023-01-04T06:15:08.594Z,3.90
2023-01-04T06:17:38.028Z,4.03
2023-01-04T06:20:09.163Z,4.10
2023-01-04T06:22:37.037Z,3.87
2023-01-04T06:25:05.166Z,3.73
2023-01-04T06:27:32.979Z,4.17
2023-01-04T06:30:00.736Z,3.73
2023-01-04T06:32:28.545Z,3.50
2023-01-04T06:34:57.719Z,3.60
2023-01-04T06:37:25.525Z,3.50
2023-01-04T06:39:53.457Z,3.50
2023-01-04T06:42:38.582Z,3.80
2023-01-04T06:45:07.482Z,3.80
2023-01-04T06:47:35.243Z,4.13
2023-01-04T06:50:05.010Z,3.60
2023-01-04T06:52:32.809Z,3.87
2023-01-04T06:55:00.614Z,3.37
2023-01-04T06:57:28.681Z,3.57
2023-01-04T06:59:56.431Z,4.17
2023-01-04T07:02:24.610Z,3.40
2023-01-04T07:04:52.623Z,3.40
2023-01-04T07:07:21.929Z,4.13
2023-01-04T07:09:49.880Z,4.20
2023-01-04T07:12:17.656Z,4.13
2023-01-04T07:14:45.467Z,4.10
2023-01-04T07:17:13.246Z,4.03
2023-01-04T07:19:41.207Z,4.50
2023-01-04T07:22:09.012Z,4.10
2023-01-04T07:24:38.105Z,4.63
2023-01-04T07:27:05.821Z,3.70
2023-01-04T07:29:33.619Z,3.97
2023-01-04T07:32:01.369Z,4.40
2023-01-04T07:34:29.482Z,3.93
2023-01-04T07:36:57.228Z,4.00
2023-01-04T07:39:25.003Z,4.07
2023-01-04T07:41:54.147Z,3.77
2023-01-04T07:44:22.581Z,4.03
2023-01-04T07:46:50.418Z,4.30
2023-01-04T07:49:19.298Z,4.57
2023-01-04T07:51:48.009Z,4.33
2023-01-04T07:54:18.329Z,4.47
2023-01-04T07:56:46.759Z,4.03
2023-01-04T07:59:17.357Z,4.40
2023-01-04T08:01:45.926Z,4.30
2023-01-04T08:04:14.784Z,4.13
2023-01-04T08:06:43.750Z,4.07
2023-01-04T08:09:12.886Z,3.97
2023-01-04T08:11:40.965Z,4.17
2023-01-04T08:14:08.804Z,3.93
2023-01-04T08:16:39.540Z,4.70
2023-01-04T08:19:09.312Z,4.10
2023-01-04T08:21:37.601Z,3.90
2023-01-04T08:24:06.197Z,4.30
2023-01-04T08:26:34.665Z,3.87
2023-01-04T08:29:02.484Z,3.93
2023-01-04T08:31:32.416Z,3.77
2023-01-04T08:34:04.642Z,4.50
2023-01-04T08:36:33.843Z,4.50
2023-01-04T08:39:04.808Z,4.57
2023-01-04T08:44:23.163Z,4.43
2023-01-04T08:46:54.102Z,4.93
2023-01-04T08:49:24.737Z,4.33
2023-01-04T08:51:52.711Z,4.77
2023-01-04T08:54:20.636Z,4.70
2023-01-04T08:56:48.451Z,5.10
2023-01-04T08:59:16.205Z,4.37
2023-01-04T09:01:44.081Z,4.50
2023-01-04T09:04:12.035Z,4.40
2023-01-04T09:06:41.245Z,4.83
2023-01-04T09:09:09.054Z,5.00
2023-01-04T09:11:38.969Z,4.83
2023-01-04T09:14:09.369Z,5.23
2023-01-04T09:16:38.235Z,4.40
2023-01-04T09:19:06.701Z,4.33
2023-01-04T09:21:34.651Z,5.00
2023-01-04T09:24:03.928Z,5.20
2023-01-04T09:26:31.750Z,5.10
2023-01-04T09:28:59.719Z,5.17
2023-01-04T09:31:29.030Z,4.80
2023-01-04T09:34:15.456Z,4.80
2023-01-04T09:36:44.985Z,4.40
2023-01-04T09:39:21.511Z,4.83
2023-01-04T09:41:56.804Z,4.17
2023-01-04T09:45:12.165Z,4.50
2023-01-04T09:47:29.680Z,4.00
2023-01-04T09:50:00.261Z,3.50
2023-01-04T09:52:40.313Z,3.73
2023-01-04T09:55:39.672Z,3.77
2023-01-04T09:58:04.018Z,3.30
2023-01-04T10:00:41.773Z,3.83
2023-01-04T10:03:14.779Z,3.60
2023-01-04T10:05:44.112Z,3.80
2023-01-04T10:08:17.369Z,3.60
2023-01-04T10:10:51.849Z,3.67
2023-01-04T10:13:37.805Z,3.60
2023-01-04T10:16:17.380Z,4.00
2023-01-04T10:21:42.283Z,3.40
2023-01-04T10:24:26.741Z,2.90
2023-01-04T10:27:00.648Z,2.90
2023-01-04T10:29:40.745Z,3.20
2023-01-04T10:32:18.328Z,2.73
2023-01-04T10:34:48.524Z,3.00
2023-01-04T10:37:20.352Z,3.53
2023-01-04T10:39:52.782Z,2.87
2023-01-04T10:42:32.237Z,3.50
2023-01-04T10:45:18.321Z,3.80
2023-01-04T10:47:54.278Z,4.47
2023-01-04T10:50:27.778Z,4.67
2023-01-04T10:53:02.796Z,4.73
2023-01-04T10:55:37.634Z,5.43
2023-01-04T10:58:12.323Z,5.73
2023-01-04T11:00:44.377Z,6.20
2023-01-04T11:03:16.236Z,5.77
2023-01-04T11:05:47.874Z,5.57
2023-01-04T11:08:20.744Z,5.97
2023-01-04T11:10:51.893Z,5.00
2023-01-04T11:13:21.330Z,5.33
2023-01-04T11:15:49.085Z,4.90
2023-01-04T11:18:17.528Z,4.70
2023-01-04T11:20:45.307Z,5.17
2023-01-04T11:23:15.701Z,4.93
2023-01-04T11:25:53.655Z,5.10
2023-01-04T11:28:27.355Z,5.10
2023-01-04T11:30:59.286Z,5.60
2023-01-04T11:33:27.104Z,5.10
2023-01-04T11:35:57.033Z,5.53
2023-01-04T11:38:25.925Z,5.87
2023-01-04T11:40:59.357Z,6.57
2023-01-04T11:43:29.520Z,6.30
2023-01-04T11:46:00.289Z,6.60
2023-01-04T11:48:42.466Z,6.97
2023-01-04T11:51:22.335Z,5.87
2023-01-04T11:53:59.031Z,6.53
2023-01-04T11:56:29.313Z,6.40
2023-01-04T11:59:20.661Z,5.63
2023-01-04T12:04:36.716Z,5.63
2023-01-04T12:07:07.462Z,5.60
2023-01-04T12:09:35.220Z,5.60
2023-01-04T12:12:02.982Z,5.50
2023-01-04T12:14:37.063Z,5.40
2023-01-04T12:17:08.219Z,5.60
2023-01-04T12:19:37.818Z,4.90
2023-01-04T12:22:06.110Z,5.10
2023-01-04T12:24:35.093Z,5.47
2023-01-04T12:27:04.682Z,4.73
2023-01-04T12:30:02.953Z,5.37
2023-01-04T12:32:49.783Z,4.87
2023-01-04T12:36:04.049Z,4.60
2023-01-04T12:39:01.341Z,4.13
2023-01-04T12:42:01.828Z,4.10
2023-01-04T12:45:18.264Z,5.20
2023-01-04T12:48:06.553Z,4.37
2023-01-04T12:51:37.203Z,4.77
2023-01-04T12:54:24.267Z,5.17
2023-01-04T12:57:11.605Z,4.10
2023-01-04T12:59:40.409Z,4.23
2023-01-04T13:05:53.185Z,4.13
2023-01-04T13:07:55.146Z,3.90
2023-01-04T13:10:36.184Z,4.27
2023-01-04T13:13:25.604Z,4.77
2023-01-04T13:16:02.966Z,5.07
2023-01-04T13:18:36.804Z,5.50
2023-01-04T13:21:09.939Z,5.57
2023-01-04T13:23:38.259Z,5.23
2023-01-04T13:26:29.741Z,5.80
2023-01-04T13:29:08.817Z,6.30
2023-01-04T13:31:43.861Z,6.37
2023-01-04T13:34:17.955Z,6.40
2023-01-04T13:36:45.814Z,6.20
2023-01-04T13:39:14.496Z,6.47
2023-01-04T13:41:44.603Z,5.93
2023-01-04T13:44:17.437Z,5.90
2023-01-04T13:46:45.313Z,5.30
2023-01-04T13:49:16.130Z,6.37
2023-01-04T13:51:43.908Z,8.03
2023-01-04T13:54:20.274Z,8.47
2023-01-04T13:56:55.164Z,6.23
2023-01-04T13:59:23.578Z,5.10
2023-01-04T14:01:53.214Z,4.93
2023-01-04T14:04:25.988Z,4.30
2023-01-04T14:06:54.732Z,4.20
2023-01-04T14:09:24.299Z,4.27
2023-01-04T14:12:07.327Z,4.00
2023-01-04T14:14:51.255Z,4.10
2023-01-04T14:17:32.052Z,4.40
2023-01-04T14:20:01.253Z,4.23
2023-01-04T14:22:37.961Z,3.90
2023-01-04T14:25:43.670Z,3.77
2023-01-04T14:28:28.608Z,3.87
2023-01-04T14:30:58.332Z,4.13
2023-01-04T14:33:34.293Z,4.40
2023-01-04T14:36:03.350Z,4.50
2023-01-04T14:38:31.502Z,4.27
2023-01-04T14:41:11.574Z,4.30
2023-01-04T14:43:46.267Z,4.90
2023-01-04T14:46:14.175Z,4.80
2023-01-04T14:48:41.901Z,4.93
2023-01-04T14:51:09.799Z,4.40
2023-01-04T14:53:37.468Z,5.20
2023-01-04T14:56:05.426Z,5.20
2023-01-04T14:58:33.310Z,5.63
2023-01-04T15:01:02.379Z,6.00
2023-01-04T15:03:30.214Z,6.70
2023-01-04T15:05:58.222Z,6.70
2023-01-04T15:08:25.999Z,7.30
2023-01-04T15:10:59.786Z,7.00
2023-01-04T15:13:30.981Z,7.73
2023-01-04T15:16:04.235Z,8.17
2023-01-04T15:18:32.064Z,7.77
2023-01-04T15:20:59.776Z,8.17
2023-01-04T15:23:27.440Z,8.30
2023-01-04T15:25:55.139Z,8.43
2023-01-04T15:28:24.188Z,7.90
2023-01-04T15:30:52.200Z,7.63
2023-01-04T15:33:21.380Z,7.80
2023-01-04T15:35:49.109Z,7.30
2023-01-04T15:38:18.416Z,7.53
2023-01-04T15:40:46.331Z,7.80
2023-01-04T15:43:13.318Z,7.03
2023-01-04T15:45:41.055Z,8.23
2023-01-04T15:48:11.063Z,8.50
2023-01-04T15:50:41.440Z,8.03
2023-01-04T15:53:09.576Z,9.20
2023-01-04T15:55:38.202Z,10.20
2023-01-04T15:58:06.144Z,10.40
2023-01-04T16:00:35.685Z,10.53
2023-01-04T16:03:03.488Z,10.07
2023-01-04T16:05:31.541Z,10.70
2023-01-04T16:08:00.654Z,10.70
2023-01-04T16:10:28.486Z,10.10
2023-01-04T16:12:57.258Z,10.43
2023-01-04T16:15:25.242Z,10.13
2023-01-04T16:17:53.028Z,10.30
2023-01-04T16:20:20.841Z,10.37
2023-01-04T16:22:48.563Z,10.67
2023-01-04T16:25:17.902Z,11.40
2023-01-04T16:27:45.599Z,13.30
2023-01-04T16:30:14.740Z,12.30
2023-01-04T16:32:43.828Z,14.77
2023-01-04T16:35:11.967Z,13.57
2023-01-04T16:37:39.943Z,15.07
2023-01-04T16:40:09.611Z,14.60
2023-01-04T16:42:39.270Z,15.03
2023-01-04T16:45:08.182Z,14.97
2023-01-04T16:47:41.027Z,16.00
2023-01-04T16:50:10.683Z,15.67
2023-01-04T16:52:38.593Z,16.40
2023-01-04T16:55:07.790Z,14.73
2023-01-04T16:57:35.517Z,15.80
2023-01-04T17:00:05.749Z,16.33
2023-01-04T17:02:33.632Z,17.30
2023-01-04T17:05:01.388Z,18.00
2023-01-04T17:07:32.667Z,18.43
2023-01-04T17:10:01.228Z,20.17
2023-01-04T17:12:47.023Z,20.10
2023-01-04T17:15:46.158Z,20.33
2023-01-04T17:18:05.238Z,21.20
2023-01-04T17:20:33.008Z,22.23
2023-01-04T17:23:00.675Z,22.63
2023-01-04T17:25:29.625Z,24.37
2023-01-04T17:27:57.377Z,24.10
2023-01-04T17:30:26.418Z,25.03
2023-01-04T17:32:54.409Z,25.20
2023-01-04T17:35:22.254Z,25.43
2023-01-04T17:37:49.963Z,25.93
2023-01-04T17:40:22.613Z,26.20
2023-01-04T17:42:50.764Z,26.80
2023-01-04T17:45:18.428Z,27.67
2023-01-04T17:47:47.583Z,27.93
2023-01-04T17:50:15.926Z,27.70
2023-01-04T17:52:43.608Z,28.83
2023-01-04T17:55:11.409Z,27.43
2023-01-04T17:57:39.116Z,28.73
2023-01-04T18:00:07.953Z,26.83
2023-01-04T18:05:14.826Z,30.03
2023-01-04T18:07:43.603Z,30.67
2023-01-04T18:10:21.528Z,30.17
2023-01-04T18:13:00.929Z,31.43
2023-01-04T18:15:28.690Z,32.70
2023-01-04T18:17:56.362Z,34.10
2023-01-04T18:20:26.583Z,32.33
2023-01-04T18:22:54.369Z,32.67
2023-01-04T18:25:22.072Z,32.93
2023-01-04T18:27:49.847Z,33.03
2023-01-04T18:30:17.606Z,33.40
2023-01-04T18:32:45.297Z,33.97
2023-01-04T18:35:13.045Z,32.90
2023-01-04T18:37:44.990Z,32.23
2023-01-04T18:40:13.404Z,31.63
2023-01-04T18:42:41.150Z,32.80
2023-01-04T18:45:09.716Z,35.70
2023-01-04T18:47:37.409Z,37.13
2023-01-04T18:50:05.547Z,35.90
2023-01-04T18:52:33.177Z,35.67
2023-01-04T18:55:03.942Z,34.60
2023-01-04T18:57:31.568Z,36.33
2023-01-04T18:59:59.938Z,35.53
2023-01-04T19:05:13.457Z,35.73
2023-01-04T19:07:41.173Z,34.60
2023-01-04T19:10:10.816Z,33.90
2023-01-04T19:12:38.970Z,32.90
2023-01-04T19:15:08.444Z,32.17
2023-01-04T19:17:36.427Z,32.13
2023-01-04T19:20:04.544Z,33.40
2023-01-04T19:22:32.261Z,32.90
2023-01-04T19:25:00.175Z,31.70
2023-01-04T19:27:29.367Z,34.20
2023-01-04T19:29:57.094Z,32.87
2023-01-04T19:32:29.985Z,32.27
2023-01-04T19:35:02.049Z,31.57
2023-01-04T19:37:30.248Z,31.10
2023-01-04T19:39:58.173Z,31.37
2023-01-04T19:42:25.840Z,32.83
2023-01-04T19:44:54.925Z,35.40
2023-01-04T19:47:22.569Z,33.70
2023-01-04T19:49:50.325Z,33.33
2023-01-04T19:52:17.999Z,32.17
2023-01-04T19:54:45.677Z,31.90
2023-01-04T19:57:13.361Z,32.37
2023-01-04T19:59:41.072Z,32.67
2023-01-04T20:02:11.032Z,30.07
2023-01-04T20:04:39.030Z,29.90
2023-01-04T20:07:06.701Z,28.07
2023-01-04T20:09:34.528Z,27.63
2023-01-04T20:12:02.298Z,27.90
2023-01-04T20:14:30.772Z,28.20
2023-01-04T20:16:58.899Z,27.80
2023-01-04T20:19:28.003Z,27.40
2023-01-04T20:21:55.728Z,27.97
2023-01-04T20:24:23.505Z,29.33
2023-01-04T20:26:51.245Z,29.17
2023-01-04T20:29:18.924Z,28.60
2023-01-04T20:31:46.640Z,29.33
2023-01-04T20:34:14.682Z,27.70
2023-01-04T20:36:43.763Z,31.07
2023-01-04T20:39:11.635Z,29.03
2023-01-04T20:41:59.722Z,29.17
2023-01-04T20:44:26.602Z,28.97
2023-01-04T20:46:54.356Z,28.30
2023-01-04T20:49:24.214Z,28.63
2023-01-04T20:51:53.253Z,28.83
2023-01-04T20:54:20.986Z,28.50
2023-01-04T20:56:48.711Z,28.20
2023-01-04T20:59:16.383Z,28.63
2023-01-04T21:01:44.090Z,28.80
2023-01-04T21:04:15.789Z,30.57
2023-01-04T21:06:43.697Z,29.87
2023-01-04T21:09:12.873Z,32.40
2023-01-04T21:11:40.555Z,34.40
2023-01-04T21:14:11.003Z,34.00
2023-01-04T21:16:41.358Z,32.67
2023-01-04T21:19:09.235Z,33.87
2023-01-04T21:21:36.946Z,34.43
2023-01-04T21:24:04.769Z,35.30
2023-01-04T21:26:35.308Z,33.10
2023-01-04T21:29:03.003Z,32.30
2023-01-04T21:31:30.817Z,33.17
2023-01-04T21:33:58.624Z,32.23
2023-01-04T21:36:27.714Z,30.77
2023-01-04T21:38:56.681Z,32.97
2023-01-04T21:41:25.625Z,31.17
2023-01-04T21:43:55.937Z,31.77
2023-01-04T21:46:24.344Z,31.20
2023-01-04T21:48:55.176Z,31.77
2023-01-04T21:51:22.907Z,31.40
2023-01-04T21:53:50.675Z,31.60
2023-01-04T21:56:22.774Z,32.30
2023-01-04T21:58:50.781Z,34.33
2023-01-04T22:01:21.591Z,41.13
2023-01-04T22:03:49.823Z,43.63
2023-01-04T22:06:17.809Z,41.63
2023-01-04T22:08:46.515Z,38.07
2023-01-04T22:11:14.976Z,35.43
2023-01-04T22:13:43.432Z,34.63
2023-01-04T22:16:12.831Z,32.03
2023-01-04T22:18:41.907Z,32.27
2023-01-04T22:21:13.074Z,29.80
2023-01-04T22:23:41.285Z,29.83
2023-01-04T22:26:09.351Z,29.70
2023-01-04T22:28:37.518Z,29.17
2023-01-04T22:31:06.787Z,29.17
2023-01-04T22:33:35.139Z,29.17
2023-01-04T22:36:06.689Z,30.37
2023-01-04T22:38:35.593Z,31.07
2023-01-04T22:41:06.966Z,27.87
2023-01-04T22:43:34.807Z,29.17
2023-01-04T22:46:03.445Z,27.53
2023-01-04T22:48:31.218Z,28.63
2023-01-04T22:50:58.866Z,27.93
2023-01-04T22:53:28.276Z,28.33
2023-01-04T22:58:49.972Z,25.70
2023-01-04T23:01:20.710Z,26.30
2023-01-04T23:03:51.857Z,24.47
2023-01-04T23:06:20.135Z,24.87
2023-01-04T23:08:49.678Z,25.60
2023-01-04T23:11:18.824Z,24.83
2023-01-04T23:13:46.763Z,23.83
2023-01-04T23:16:16.545Z,24.47
2023-01-04T23:18:44.769Z,24.47
2023-01-04T23:21:12.848Z,23.73
2023-01-04T23:23:40.636Z,24.13
2023-01-04T23:26:13.778Z,23.93
2023-01-04T23:28:41.525Z,24.00
2023-01-04T23:31:11.646Z,25.23
2023-01-04T23:33:39.724Z,25.40
2023-01-04T23:36:09.238Z,25.53
2023-01-04T23:38:37.033Z,25.93
2023-01-04T23:41:04.780Z,24.03
2023-01-04T23:43:35.805Z,25.50
2023-01-04T23:46:06.825Z,25.47
2023-01-04T23:48:34.592Z,25.87
2023-01-04T23:51:02.323Z,24.53
2023-01-04T23:53:30.004Z,24.83
2023-01-04T23:56:02.388Z,24.07
2023-01-04T23:58:31.458Z,24.33
